Time;durP1;ratioP1;P1;durP2;ratioP2;P2;SDS_P1;SDS_P2;PMS_P1;PMS_P2;Temp;Humidity;BMP_temperature;BMP_pressure;BME280_temperature;BME280_humidity;BME280_pressure;Samples;Min_cycle;Max_cycle;Signal;HPM_P1;HPM_P2
2022/07/06 00:01:57;;;;;;;3.50;0.38;;;14.30;99.90;;;;;;4964378;28;20382;-71
2022/07/06 00:04:23;;;;;;;6.18;0.50;;;14.30;1.00;;;;;;4975427;28;20038;-71
2022/07/06 00:06:49;;;;;;;3.75;0.50;;;14.30;99.90;;;;;;4967303;28;20056;-71
2022/07/06 00:09:15;;;;;;;0.93;0.35;;;14.30;1.00;;;;;;4956084;28;20531;-72
2022/07/06 00:11:41;;;;;;;2.20;0.40;;;14.30;1.00;;;;;;4956076;28;20023;-71
2022/07/06 00:14:07;;;;;;;3.05;1.95;;;14.20;1.00;;;;;;4954709;28;20107;-71
2022/07/06 00:16:32;;;;;;;1.95;0.47;;;14.20;99.90;;;;;;4952284;28;20051;-71
2022/07/06 00:18:58;;;;;;;2.17;0.40;;;14.20;99.90;;;;;;4975319;28;20486;-71
2022/07/06 00:21:23;;;;;;;1.83;0.40;;;14.30;1.00;;;;;;4975369;28;20057;-72
2022/07/06 00:23:49;;;;;;;0.45;0.30;;;14.20;1.00;;;;;;4960916;28;20444;-71
2022/07/06 00:26:15;;;;;;;1.75;0.47;;;14.20;1.00;;;;;;4955872;28;20467;-71
2022/07/06 00:28:40;;;;;;;2.65;0.40;;;14.20;99.90;;;;;;4955814;28;20054;-73
2022/07/06 00:31:06;;;;;;;2.92;0.30;;;14.30;99.90;;;;;;4955938;28;20506;-72
2022/07/06 00:33:32;;;;;;;4.10;0.82;;;14.30;99.90;;;;;;4987311;23;20054;-82
2022/07/06 00:35:59;;;;;;;2.63;0.40;;;14.30;99.90;;;;;;4976819;28;20046;-82
2022/07/06 00:38:25;;;;;;;2.60;0.40;;;14.30;99.90;;;;;;4974451;28;20029;-81
2022/07/06 00:40:50;;;;;;;2.95;0.40;;;14.30;99.90;;;;;;4975684;28;20150;-81
2022/07/06 00:43:16;;;;;;;1.13;0.40;;;14.30;99.90;;;;;;4973702;28;20053;-81
2022/07/06 00:45:43;;;;;;;3.13;0.90;;;14.30;99.90;;;;;;4975030;28;20118;-81
2022/07/06 00:48:09;;;;;;;1.17;0.32;;;14.30;99.90;;;;;;4975334;28;20026;-81
2022/07/06 00:50:36;;;;;;;2.67;0.35;;;14.30;99.90;;;;;;4975718;28;20041;-82
2022/07/06 00:53:04;;;;;;;1.58;0.63;;;14.40;99.90;;;;;;4974950;28;20423;-81
2022/07/06 00:55:32;;;;;;;2.40;0.52;;;14.40;99.90;;;;;;4974740;28;20025;-81
2022/07/06 00:57:57;;;;;;;2.08;0.35;;;14.40;99.90;;;;;;4974968;28;20034;-81
2022/07/06 01:00:24;;;;;;;3.22;0.30;;;14.40;99.90;;;;;;4974832;28;20023;-80
2022/07/06 01:02:51;;;;;;;2.63;0.40;;;14.40;99.90;;;;;;4974832;28;20039;-81
2022/07/06 01:05:17;;;;;;;2.60;0.50;;;14.40;99.90;;;;;;4973296;28;20023;-81
2022/07/06 01:07:45;;;;;;;2.70;0.80;;;14.40;99.90;;;;;;4975373;28;20775;-81
2022/07/06 01:10:13;;;;;;;1.50;0.30;;;14.40;1.00;;;;;;4974643;28;20049;-81
2022/07/06 01:12:40;;;;;;;3.47;0.30;;;14.40;1.00;;;;;;4974470;28;20035;-81
2022/07/06 01:15:09;;;;;;;2.70;0.50;;;14.40;1.00;;;;;;4974631;28;20025;-81
2022/07/06 01:17:35;;;;;;;1.30;1.00;;;14.30;1.00;;;;;;4974479;28;20022;-80
2022/07/06 01:20:11;;;;;;;2.47;0.50;;;14.30;1.00;;;;;;4974564;28;20027;-80
2022/07/06 01:22:37;;;;;;;2.70;0.55;;;14.30;1.00;;;;;;4960109;28;20023;-81
2022/07/06 01:25:04;;;;;;;3.55;0.40;;;14.30;1.00;;;;;;4973038;28;20443;-81
2022/07/06 01:27:30;;;;;;;2.60;0.43;;;14.30;1.00;;;;;;4973977;28;20375;-82
2022/07/06 01:29:56;;;;;;;2.40;0.43;;;14.30;99.90;;;;;;4974338;28;20031;-82
2022/07/06 01:32:21;;;;;;;1.40;0.50;;;14.30;99.90;;;;;;4965103;28;20063;-82
2022/07/06 01:34:47;;;;;;;2.45;0.52;;;14.30;99.90;;;;;;4954750;28;20090;-81
2022/07/06 01:37:13;;;;;;;3.25;0.50;;;14.30;99.90;;;;;;4955053;28;20032;-80
2022/07/06 01:39:38;;;;;;;2.03;0.50;;;14.30;99.90;;;;;;4954911;28;20086;-80
2022/07/06 01:42:04;;;;;;;0.65;0.40;;;14.40;99.90;;;;;;4954655;29;20424;-80
2022/07/06 01:44:30;;;;;;;0.95;0.40;;;14.40;99.90;;;;;;4954900;28;20054;-81
2022/07/06 01:46:55;;;;;;;2.33;0.50;;;14.40;99.90;;;;;;4953214;28;20051;-81
2022/07/06 01:49:21;;;;;;;4.20;0.50;;;14.30;99.90;;;;;;4954752;29;20099;-79
2022/07/06 01:51:46;;;;;;;2.20;0.50;;;14.40;99.90;;;;;;4954324;28;20045;-79
2022/07/06 01:54:12;;;;;;;1.88;0.57;;;14.40;99.90;;;;;;4954726;28;20102;-81
2022/07/06 01:56:37;;;;;;;3.35;0.68;;;14.30;99.90;;;;;;4954963;28;20034;-80
2022/07/06 01:59:03;;;;;;;2.22;0.50;;;14.40;99.90;;;;;;4954858;28;20452;-80
2022/07/06 02:01:29;;;;;;;2.63;0.40;;;14.40;99.90;;;;;;4954750;28;20533;-81
2022/07/06 02:03:54;;;;;;;1.42;0.60;;;14.40;99.90;;;;;;4941880;28;20115;-81
2022/07/06 02:06:20;;;;;;;4.15;0.68;;;14.40;1.00;;;;;;4941457;29;20021;-81
2022/07/06 02:08:45;;;;;;;3.03;0.40;;;14.40;1.00;;;;;;4954518;28;20019;-80
2022/07/06 02:11:11;;;;;;;1.10;0.40;;;14.50;1.00;;;;;;4954582;28;20035;-81
2022/07/06 02:13:37;;;;;;;5.05;0.50;;;14.50;1.00;;;;;;4954543;28;20098;-82
2022/07/06 02:16:03;;;;;;;3.67;0.68;;;14.50;1.00;;;;;;4954414;28;20451;-79
2022/07/06 02:18:29;;;;;;;2.92;0.50;;;14.50;1.00;;;;;;4954612;28;20027;-80
2022/07/06 02:20:54;;;;;;;11.52;0.80;;;14.40;1.00;;;;;;4954450;28;20151;-81
2022/07/06 02:23:20;;;;;;;5.15;0.40;;;14.40;1.00;;;;;;4954372;28;20171;-80
2022/07/06 02:25:45;;;;;;;2.08;0.38;;;14.40;1.00;;;;;;4954319;28;20058;-80
2022/07/06 02:28:11;;;;;;;3.28;0.40;;;14.40;1.00;;;;;;4954354;28;20031;-81
2022/07/06 02:30:37;;;;;;;2.92;0.40;;;14.30;1.00;;;;;;4954363;28;20020;-82
2022/07/06 02:33:08;;;;;;;5.22;0.50;;;14.30;1.00;;;;;;4951683;28;20403;-80
2022/07/06 02:35:34;;;;;;;8.20;1.48;;;14.30;1.00;;;;;;4954581;29;20471;-82
2022/07/06 02:37:59;;;;;;;2.40;0.30;;;14.30;99.90;;;;;;4954198;28;20105;-80
2022/07/06 02:40:25;;;;;;;3.25;0.60;;;14.20;99.90;;;;;;4948761;28;20104;-81
2022/07/06 02:42:50;;;;;;;3.60;0.80;;;14.10;99.90;;;;;;4935216;29;20064;-81
2022/07/06 02:45:16;;;;;;;1.48;0.30;;;14.00;99.90;;;;;;4935228;29;20075;-80
2022/07/06 02:47:42;;;;;;;5.35;0.47;;;14.00;99.90;;;;;;4935280;29;20039;-82
2022/07/06 02:50:07;;;;;;;1.98;0.32;;;13.90;99.90;;;;;;4935270;29;20031;-81
2022/07/06 02:52:33;;;;;;;2.65;0.50;;;13.80;99.90;;;;;;4935103;29;20028;-82
2022/07/06 02:54:58;;;;;;;2.47;1.05;;;13.80;99.90;;;;;;4935108;29;20448;-82
2022/07/06 02:57:24;;;;;;;2.65;0.50;;;13.70;99.90;;;;;;4934972;29;20031;-79
2022/07/06 02:59:49;;;;;;;4.65;0.85;;;13.60;1.00;;;;;;4934908;29;20020;-79
2022/07/06 03:02:16;;;;;;;2.22;0.50;;;13.50;1.00;;;;;;4934861;29;20341;-81
2022/07/06 03:04:42;;;;;;;1.15;0.32;;;13.30;1.00;;;;;;4955877;28;20031;-79
2022/07/06 03:07:08;;;;;;;1.90;0.47;;;13.10;1.00;;;;;;4957630;28;20038;-81
2022/07/06 03:09:34;;;;;;;1.30;0.40;;;12.90;1.00;;;;;;4957785;28;20028;-80
2022/07/06 03:11:59;;;;;;;0.73;0.30;;;12.80;1.00;;;;;;4957378;28;20023;-81
2022/07/06 03:14:25;;;;;;;2.47;0.38;;;12.70;1.00;;;;;;4957339;28;20019;-80
2022/07/06 03:16:51;;;;;;;2.55;0.50;;;12.50;1.00;;;;;;4957241;28;20100;-79
2022/07/06 03:19:17;;;;;;;1.73;0.40;;;12.50;1.00;;;;;;4957626;28;20375;-79
2022/07/06 03:21:42;;;;;;;5.07;0.68;;;12.40;1.00;;;;;;4957532;28;20023;-80
2022/07/06 03:24:08;;;;;;;4.43;0.30;;;12.30;1.00;;;;;;4957472;28;20046;-81
2022/07/06 03:26:34;;;;;;;2.55;0.38;;;12.20;1.00;;;;;;4957549;28;20038;-82
2022/07/06 03:28:59;;;;;;;1.67;0.50;;;12.10;1.00;;;;;;4957310;28;20027;-80
2022/07/06 03:31:25;;;;;;;2.83;0.47;;;12.00;1.00;;;;;;4957479;28;20063;-80
2022/07/06 03:33:51;;;;;;;2.47;0.40;;;11.90;1.00;;;;;;4957188;28;20447;-81
2022/07/06 03:36:17;;;;;;;1.27;0.40;;;11.80;1.00;;;;;;4957381;28;20361;-79
2022/07/06 03:38:43;;;;;;;1.40;0.40;;;11.80;1.00;;;;;;4957389;28;20033;-81
2022/07/06 03:41:08;;;;;;;2.00;0.47;;;11.70;1.00;;;;;;4945441;28;20528;-81
2022/07/06 03:43:34;;;;;;;1.42;0.40;;;12.00;1.00;;;;;;4943207;29;20023;-82
2022/07/06 03:46:00;;;;;;;3.72;0.90;;;12.20;1.00;;;;;;4957385;28;20052;-80
2022/07/06 03:48:25;;;;;;;1.73;0.30;;;12.30;1.00;;;;;;4957278;28;20030;-81
2022/07/06 03:50:51;;;;;;;3.35;0.52;;;12.20;1.00;;;;;;4950387;29;20028;-81
2022/07/06 03:53:16;;;;;;;2.40;0.45;;;12.30;1.00;;;;;;4956602;29;20027;-81
2022/07/06 03:55:42;;;;;;;1.70;0.35;;;12.30;1.00;;;;;;4957164;28;20070;-81
2022/07/06 03:58:07;;;;;;;4.40;0.52;;;12.30;1.00;;;;;;4957019;28;20505;-80
2022/07/06 04:00:34;;;;;;;2.17;0.47;;;12.40;1.00;;;;;;4957079;28;20031;-81
2022/07/06 04:03:00;;;;;;;4.50;0.50;;;12.40;1.00;;;;;;4955848;29;20032;-82
2022/07/06 04:05:26;;;;;;;1.42;0.40;;;12.60;1.00;;;;;;4956996;28;20463;-81
2022/07/06 04:07:51;;;;;;;1.48;0.40;;;12.90;1.00;;;;;;4956768;28;20023;-80
2022/07/06 04:10:17;;;;;;;2.97;0.30;;;13.00;1.00;;;;;;4956810;28;20656;-81
2022/07/06 04:12:43;;;;;;;1.10;0.38;;;13.10;1.00;;;;;;4956687;28;20071;-81
2022/07/06 04:15:10;;;;;;;0.50;0.40;;;13.20;1.00;;;;;;4956237;28;20538;-81
2022/07/06 04:17:55;;;;;;;1.42;0.30;;;13.40;1.00;;;;;;4956548;28;20019;-82
2022/07/06 04:20:21;;;;;;;1.17;0.40;;;13.50;1.00;;;;;;4945816;28;20416;-81
2022/07/06 04:22:47;;;;;;;2.47;0.40;;;13.60;1.00;;;;;;4937569;29;20420;-81
2022/07/06 04:25:13;;;;;;;2.08;0.40;;;13.70;1.00;;;;;;4951439;29;20023;-80
2022/07/06 04:27:39;;;;;;;2.63;0.40;;;13.80;1.00;;;;;;4956766;28;20035;-81
2022/07/06 04:30:05;;;;;;;1.98;0.30;;;13.90;1.00;;;;;;4956730;28;20095;-83
2022/07/06 04:32:31;;;;;;;1.63;0.50;;;14.00;1.00;;;;;;4938214;28;20066;-84
2022/07/06 04:34:57;;;;;;;2.33;0.50;;;14.10;1.00;;;;;;4938936;29;20024;-82
2022/07/06 04:37:24;;;;;;;1.23;0.50;;;14.20;1.00;;;;;;4955562;28;20034;-79
2022/07/06 04:39:50;;;;;;;0.65;0.40;;;14.30;1.00;;;;;;4956557;28;20024;-81
2022/07/06 04:42:15;;;;;;;1.05;0.30;;;14.30;1.00;;;;;;4956349;28;20032;-80
2022/07/06 04:44:41;;;;;;;2.63;0.50;;;14.50;1.00;;;;;;4956466;28;20023;-81
2022/07/06 04:47:07;;;;;;;0.75;0.30;;;14.60;1.00;;;;;;4955595;29;20039;-82
2022/07/06 04:49:32;;;;;;;4.30;0.70;;;14.60;1.00;;;;;;4956528;28;20027;-83
2022/07/06 04:51:58;;;;;;;1.30;0.30;;;14.80;1.00;;;;;;4955136;28;20063;-80
2022/07/06 04:54:23;;;;;;;0.95;0.35;;;14.90;99.90;;;;;;4955452;28;20055;-80
2022/07/06 04:56:49;;;;;;;0.65;0.20;;;15.00;99.90;;;;;;4944350;29;20082;-81
2022/07/06 04:59:15;;;;;;;5.88;0.43;;;15.20;99.90;;;;;;4954621;29;20034;-80
2022/07/06 05:01:40;;;;;;;1.55;0.43;;;15.40;99.90;;;;;;4956049;28;20020;-81
2022/07/06 05:04:06;;;;;;;2.30;0.40;;;15.40;99.90;;;;;;4955510;28;20035;-81
2022/07/06 05:06:32;;;;;;;1.42;0.30;;;15.40;99.90;;;;;;4955945;28;20059;-82
2022/07/06 05:08:59;;;;;;;1.85;0.30;;;15.50;99.90;;;;;;4955554;28;20054;-81
2022/07/06 05:11:25;;;;;;;1.30;0.47;;;15.70;99.90;;;;;;4955275;28;20051;-82
2022/07/06 05:13:51;;;;;;;1.17;0.85;;;15.90;99.90;;;;;;4954528;28;20031;-81
2022/07/06 05:16:17;;;;;;;10.13;1.15;;;16.00;99.90;;;;;;4955350;28;20082;-80
2022/07/06 05:18:42;;;;;;;0.40;0.38;;;16.00;99.90;;;;;;4955373;28;20368;-81
2022/07/06 05:21:08;;;;;;;0.57;0.30;;;16.10;99.90;;;;;;4955300;28;20081;-80
2022/07/06 05:23:33;;;;;;;1.95;0.30;;;16.50;99.90;;;;;;4955204;28;20442;-82
2022/07/06 05:25:59;;;;;;;4.03;0.30;;;16.80;99.90;;;;;;4954035;28;20027;-82
2022/07/06 05:28:24;;;;;;;1.70;0.38;;;16.60;99.90;;;;;;4954913;28;20038;-81
2022/07/06 05:30:50;;;;;;;1.67;0.47;;;16.60;99.90;;;;;;4953854;28;20027;-81
2022/07/06 05:33:16;;;;;;;3.10;0.45;;;17.00;99.90;;;;;;4954147;28;20066;-83
2022/07/06 05:35:41;;;;;;;1.33;0.40;;;20.50;99.90;;;;;;4944984;28;20023;-82
2022/07/06 05:38:07;;;;;;;1.27;0.30;;;24.90;99.90;;;;;;4950043;28;20079;-82
2022/07/06 05:40:33;;;;;;;2.63;0.30;;;25.00;99.90;;;;;;4953474;29;20067;-83
2022/07/06 05:42:59;;;;;;;3.47;0.40;;;26.90;99.90;;;;;;4937014;29;20036;-83
2022/07/06 05:45:24;;;;;;;1.42;0.30;;;28.30;99.90;;;;;;4953611;28;20023;-83
2022/07/06 05:50:34;;;;;;;1.13;0.30;;;29.50;99.90;;;;;;4944891;29;20082;-85
2022/07/06 05:53:02;;;;;;;1.98;0.28;;;29.90;99.90;;;;;;4955116;28;20410;-84
2022/07/06 05:55:27;;;;;;;0.47;0.30;;;29.60;99.90;;;;;;4955076;28;20483;-83
2022/07/06 05:57:56;;;;;;;0.93;0.30;;;30.60;99.90;;;;;;4954806;28;20103;-84
2022/07/06 06:00:26;;;;;;;3.85;0.30;;;29.60;99.90;;;;;;4954586;28;20378;-84
2022/07/06 06:02:53;;;;;;;1.30;0.35;;;30.10;99.90;;;;;;4953759;28;20035;-84
2022/07/06 06:05:19;;;;;;;1.98;0.20;;;30.30;99.90;;;;;;4955035;28;20034;-84
2022/07/06 06:07:50;;;;;;;2.45;0.50;;;30.20;99.90;;;;;;4954821;28;20452;-84
2022/07/06 06:10:17;;;;;;;1.77;0.40;;;29.80;99.90;;;;;;4938311;29;20379;-85
2022/07/06 06:12:44;;;;;;;1.00;0.10;;;28.10;99.90;;;;;;4953912;29;20034;-84
2022/07/06 06:15:11;;;;;;;0.82;0.15;;;28.20;99.90;;;;;;4955097;28;20078;-85
2022/07/06 06:17:37;;;;;;;1.42;0.30;;;30.60;99.90;;;;;;4954200;28;20024;-83
2022/07/06 06:20:04;;;;;;;2.10;0.20;;;32.50;99.90;;;;;;4953966;29;20024;-83
2022/07/06 06:22:29;;;;;;;2.22;0.40;;;33.70;99.90;;;;;;4953454;28;20042;-85
2022/07/06 06:24:55;;;;;;;1.08;0.30;;;34.80;99.90;;;;;;4960567;29;20035;-82
2022/07/06 06:27:20;;;;;;;2.20;0.20;;;33.40;99.90;;;;;;4962576;28;20027;-84
2022/07/06 06:29:46;;;;;;;6.60;0.50;;;34.40;99.90;;;;;;4963884;28;20051;-80
2022/07/06 06:32:13;;;;;;;1.85;0.17;;;35.30;99.90;;;;;;4958685;28;20055;-80
2022/07/06 06:34:39;;;;;;;1.55;0.30;;;34.40;99.90;;;;;;4960207;28;20019;-85
2022/07/06 06:37:05;;;;;;;1.98;0.30;;;34.00;99.90;;;;;;4966684;29;20027;-83
2022/07/06 06:39:30;;;;;;;3.45;0.50;;;35.00;99.90;;;;;;4972736;28;20022;-83
2022/07/06 06:41:56;;;;;;;1.42;0.30;;;35.60;99.90;;;;;;4968961;28;20032;-83
2022/07/06 06:44:24;;;;;;;3.15;0.50;;;36.00;99.90;;;;;;4964881;28;20019;-83
2022/07/06 06:46:52;;;;;;;2.17;0.40;;;33.80;99.90;;;;;;4953738;29;20062;-87
2022/07/06 06:49:18;;;;;;;2.30;0.35;;;34.10;99.90;;;;;;4956536;28;20020;-83
2022/07/06 06:51:44;;;;;;;0.90;0.28;;;33.40;99.90;;;;;;4967381;29;20045;-86
2022/07/06 06:54:09;;;;;;;2.67;0.20;;;32.30;99.90;;;;;;4948555;28;20038;-84
2022/07/06 06:56:35;;;;;;;1.83;0.30;;;34.70;99.90;;;;;;4938926;29;20034;-88
2022/07/06 06:59:01;;;;;;;1.05;0.43;;;33.80;99.90;;;;;;4946161;29;20129;-85
2022/07/06 07:01:27;;;;;;;2.45;0.30;;;34.60;99.90;;;;;;4960603;28;20054;-86
2022/07/06 07:03:54;;;;;;;2.15;0.30;;;36.30;99.90;;;;;;4961208;28;20122;-86
2022/07/06 07:06:21;;;;;;;2.75;0.38;;;38.00;99.90;;;;;;4959701;28;20159;-84
2022/07/06 07:08:47;;;;;;;1.55;0.35;;;37.50;99.90;;;;;;4960439;29;20042;-87
2022/07/06 07:11:12;;;;;;;3.55;0.30;;;34.70;99.90;;;;;;4959427;28;20033;-85
2022/07/06 07:13:38;;;;;;;4.05;0.68;;;34.70;99.90;;;;;;4958850;29;20114;-85
2022/07/06 07:16:04;;;;;;;1.52;0.30;;;32.90;99.90;;;;;;4953338;28;20035;-84
2022/07/06 07:18:29;;;;;;;2.13;0.45;;;33.40;99.90;;;;;;4940776;29;20020;-86
2022/07/06 07:20:55;;;;;;;1.25;0.30;;;35.90;99.90;;;;;;4937752;29;20379;-82
2022/07/06 07:23:20;;;;;;;1.02;0.28;;;33.50;99.90;;;;;;4951234;29;20474;-84
2022/07/06 07:25:46;;;;;;;3.45;0.40;;;33.80;99.90;;;;;;4956401;29;20483;-84
2022/07/06 07:28:11;;;;;;;1.80;0.35;;;35.40;99.90;;;;;;4956524;29;20015;-85
2022/07/06 07:30:37;;;;;;;2.40;0.38;;;38.00;99.90;;;;;;4957794;28;20098;-85
2022/07/06 07:33:03;;;;;;;1.52;0.47;;;37.80;99.90;;;;;;4956900;28;20439;-84
2022/07/06 07:35:28;;;;;;;1.13;0.30;;;34.80;99.90;;;;;;4956512;29;20042;-85
2022/07/06 07:37:54;;;;;;;1.08;0.22;;;36.10;99.90;;;;;;4957269;28;20023;-82
2022/07/06 07:40:19;;;;;;;1.65;0.35;;;40.70;99.90;;;;;;4962221;28;20098;-83
2022/07/06 07:42:45;;;;;;;2.70;0.40;;;35.10;99.90;;;;;;4976248;28;20042;-81
2022/07/06 07:45:12;;;;;;;2.80;0.40;;;30.90;99.90;;;;;;4971720;28;20027;-82
2022/07/06 07:47:38;;;;;;;3.33;0.50;;;31.30;99.90;;;;;;4945684;28;20076;-81
2022/07/06 07:50:05;;;;;;;1.77;0.35;;;35.60;99.90;;;;;;4938061;29;20137;-80
2022/07/06 07:52:30;;;;;;;0.82;0.40;;;35.40;99.90;;;;;;4949813;29;20034;-81
2022/07/06 07:54:56;;;;;;;1.88;0.30;;;31.50;99.90;;;;;;4958198;28;20019;-79
2022/07/06 07:57:22;;;;;;;3.25;0.70;;;29.00;99.90;;;;;;4955524;28;20034;-81
2022/07/06 07:59:47;;;;;;;2.10;0.32;;;27.70;99.90;;;;;;4956445;28;20140;-81
2022/07/06 08:02:13;;;;;;;1.85;0.43;;;26.40;99.90;;;;;;4956586;28;20032;-82
2022/07/06 08:04:38;;;;;;;2.35;0.40;;;26.70;99.90;;;;;;4956690;28;20122;-81
2022/07/06 08:07:04;;;;;;;0.70;0.30;;;32.60;99.90;;;;;;4955254;29;20031;-81
2022/07/06 08:09:29;;;;;;;2.05;0.30;;;31.90;99.90;;;;;;4956664;28;20032;-81
2022/07/06 08:11:55;;;;;;;0.73;0.38;;;29.10;99.90;;;;;;4955090;29;20020;-80
2022/07/06 08:14:20;;;;;;;2.22;0.50;;;33.60;99.90;;;;;;4956611;28;20474;-81
2022/07/06 08:16:46;;;;;;;1.50;0.22;;;38.40;99.90;;;;;;4956558;28;20460;-81
2022/07/06 08:19:14;;;;;;;0.47;0.30;;;38.60;99.90;;;;;;4956248;28;20019;-79
2022/07/06 08:21:40;;;;;;;3.20;0.40;;;32.80;99.90;;;;;;4955226;28;20051;-78
2022/07/06 08:24:07;;;;;;;3.45;0.40;;;34.20;99.90;;;;;;4956293;29;20027;-77
2022/07/06 08:26:32;;;;;;;1.17;0.50;;;36.50;99.90;;;;;;4956303;29;20094;-77
2022/07/06 08:28:58;;;;;;;2.28;0.30;;;39.20;99.90;;;;;;4956188;29;20447;-78
2022/07/06 08:31:24;;;;;;;1.75;0.30;;;41.10;99.90;;;;;;4954883;29;20425;-78
2022/07/06 08:33:53;;;;;;;2.70;0.50;;;40.80;99.90;;;;;;4953544;29;20491;-77
2022/07/06 08:36:19;;;;;;;1.85;0.32;;;36.00;99.90;;;;;;4956346;29;20486;-80
2022/07/06 08:38:44;;;;;;;2.25;0.60;;;33.20;99.90;;;;;;4956199;28;20059;-80
2022/07/06 08:41:11;;;;;;;2.30;0.40;;;34.70;99.90;;;;;;4944615;29;20027;-79
2022/07/06 08:43:36;;;;;;;1.75;0.40;;;30.80;99.90;;;;;;4935525;29;20499;-79
2022/07/06 08:46:02;;;;;;;0.95;0.40;;;31.70;99.90;;;;;;4936850;29;20111;-79
2022/07/06 08:48:37;;;;;;;1.55;0.38;;;36.00;99.90;;;;;;4955073;29;20027;-79
2022/07/06 08:51:04;;;;;;;2.38;0.47;;;37.70;99.90;;;;;;4955967;28;20027;-79
2022/07/06 08:53:30;;;;;;;2.85;0.45;;;38.70;99.90;;;;;;4936806;29;20031;-79
2022/07/06 08:55:55;;;;;;;0.98;0.40;;;41.20;99.90;;;;;;4936858;29;20391;-79
2022/07/06 08:58:24;;;;;;;0.93;0.25;;;38.40;99.90;;;;;;4936431;29;20114;-79
2022/07/06 09:00:50;;;;;;;0.82;0.30;;;38.40;99.90;;;;;;4936522;29;20046;-81
2022/07/06 09:03:16;;;;;;;2.20;0.40;;;38.70;99.90;;;;;;4953883;28;20507;-80
2022/07/06 09:05:45;;;;;;;0.82;0.30;;;38.90;99.90;;;;;;4955697;28;20019;-80
2022/07/06 09:08:11;;;;;;;1.73;0.40;;;40.10;99.90;;;;;;4936551;29;20483;-80
2022/07/06 09:10:37;;;;;;;2.08;0.40;;;40.90;99.90;;;;;;4936784;29;20024;-81
2022/07/06 09:13:07;;;;;;;0.95;0.30;;;37.30;99.90;;;;;;4936318;29;20472;-80
2022/07/06 09:15:34;;;;;;;2.78;0.40;;;34.90;99.90;;;;;;4936637;29;20099;-80
2022/07/06 09:18:01;;;;;;;3.15;0.50;;;36.00;99.90;;;;;;4936414;29;20119;-80
2022/07/06 09:20:26;;;;;;;1.77;0.40;;;34.80;99.90;;;;;;4936317;29;20372;-80
2022/07/06 09:22:59;;;;;;;0.88;0.25;;;34.10;99.90;;;;;;4936116;29;20122;-80
2022/07/06 09:25:25;;;;;;;0.82;0.20;;;38.20;99.90;;;;;;4936533;29;20055;-80
2022/07/06 09:27:54;;;;;;;0.73;0.10;;;38.20;99.90;;;;;;4936093;29;20564;-80
2022/07/06 09:30:20;;;;;;;0.35;0.20;;;38.90;99.90;;;;;;4949840;29;20086;-80
2022/07/06 09:32:49;;;;;;;1.67;0.30;;;38.70;99.90;;;;;;4953954;28;20069;-81
2022/07/06 09:35:36;;;;;;;1.63;0.22;;;36.80;99.90;;;;;;4950534;29;20095;-81
2022/07/06 09:38:13;;;;;;;1.08;0.47;;;35.90;99.90;;;;;;4937406;28;20476;-81
2022/07/06 09:40:41;;;;;;;1.95;0.40;;;35.70;99.90;;;;;;4954853;28;20559;-80
2022/07/06 09:43:11;;;;;;;0.90;0.30;;;34.80;99.90;;;;;;4955011;28;20122;-81
2022/07/06 09:45:38;;;;;;;2.15;0.40;;;34.40;99.90;;;;;;4955133;28;20031;-81
2022/07/06 09:48:09;;;;;;;1.75;0.40;;;33.90;99.90;;;;;;4955210;28;20062;-79
2022/07/06 09:50:45;;;;;;;0.40;0.30;;;35.40;99.90;;;;;;4954874;28;20023;-80
2022/07/06 09:53:12;;;;;;;0.73;0.30;;;35.80;99.90;;;;;;4953128;28;20074;-80
2022/07/06 09:55:38;;;;;;;0.88;0.30;;;36.40;99.90;;;;;;4935649;29;20457;-80
2022/07/06 09:58:04;;;;;;;0.90;0.20;;;36.00;99.90;;;;;;4935588;29;20024;-80
2022/07/06 10:00:43;;;;;;;0.80;0.30;;;38.20;99.90;;;;;;4935802;29;20436;-81
2022/07/06 10:03:09;;;;;;;1.73;0.40;;;39.30;99.90;;;;;;4935680;29;20035;-80
2022/07/06 10:05:37;;;;;;;1.58;0.22;;;39.80;99.90;;;;;;4935527;29;20039;-80
2022/07/06 10:08:05;;;;;;;1.43;0.40;;;38.90;99.90;;;;;;4942195;29;20026;-79
2022/07/06 10:10:32;;;;;;;0.45;0.30;;;36.20;99.90;;;;;;4955349;28;20020;-81
2022/07/06 10:12:59;;;;;;;2.15;0.30;;;35.70;99.90;;;;;;4954495;28;20337;-80
2022/07/06 10:15:31;;;;;;;0.82;0.30;;;38.20;99.90;;;;;;4953181;28;20031;-80
2022/07/06 10:17:57;;;;;;;0.90;0.30;;;38.20;99.90;;;;;;4953225;29;20031;-79
2022/07/06 10:20:23;;;;;;;1.15;0.30;;;35.20;99.90;;;;;;4954497;28;20031;-80
2022/07/06 10:22:50;;;;;;;0.75;0.28;;;38.50;99.90;;;;;;4953158;29;20027;-80
2022/07/06 10:25:19;;;;;;;2.20;0.30;;;39.10;99.90;;;;;;4953014;29;20042;-81
2022/07/06 10:27:47;;;;;;;0.47;0.30;;;38.30;99.90;;;;;;4954062;28;20023;-81
2022/07/06 10:30:13;;;;;;;1.48;0.30;;;35.50;99.90;;;;;;4953867;28;20472;-81
2022/07/06 10:32:41;;;;;;;1.70;0.45;;;35.30;99.90;;;;;;4953145;28;20519;-80
2022/07/06 10:35:07;;;;;;;1.90;0.38;;;34.80;99.90;;;;;;4954558;28;20027;-81
2022/07/06 10:37:33;;;;;;;0.57;0.30;;;35.00;99.90;;;;;;4954526;28;20031;-81
2022/07/06 10:42:43;;;;;;;0.50;0.40;;;38.00;99.90;;;;;;4948458;29;20046;-81
2022/07/06 10:45:12;;;;;;;0.30;0.30;;;39.20;99.90;;;;;;4949470;29;20023;-81
2022/07/06 10:47:42;;;;;;;0.88;0.43;;;39.80;99.90;;;;;;4953999;28;20106;-79
2022/07/06 10:50:10;;;;;;;1.77;0.43;;;39.40;99.90;;;;;;4954098;28;20489;-81
2022/07/06 10:52:58;;;;;;;0.50;0.30;;;39.40;99.90;;;;;;4954420;28;20024;-80
2022/07/06 10:55:37;;;;;;;3.10;0.47;;;39.20;99.90;;;;;;4954328;29;20027;-80
2022/07/06 10:58:04;;;;;;;2.83;0.50;;;39.40;99.90;;;;;;4954147;28;20023;-80
2022/07/06 11:00:53;;;;;;;2.38;0.45;;;38.80;99.90;;;;;;4954238;28;20035;-81
2022/07/06 11:03:38;;;;;;;1.17;0.32;;;39.40;99.90;;;;;;4935114;29;20476;-82
2022/07/06 11:06:28;;;;;;;1.48;0.40;;;38.50;99.90;;;;;;4934890;29;20403;-82
2022/07/06 11:09:01;;;;;;;1.95;0.30;;;38.70;99.90;;;;;;4934828;29;20052;-80
2022/07/06 11:11:35;;;;;;;0.73;0.30;;;38.10;99.90;;;;;;4942543;29;20488;-79
2022/07/06 11:14:02;;;;;;;2.75;0.52;;;36.70;99.90;;;;;;4955481;28;20495;-82
2022/07/06 11:16:33;;;;;;;1.00;0.50;;;36.90;99.90;;;;;;4955926;28;20024;-85
2022/07/06 11:19:19;;;;;;;2.10;0.50;;;34.60;99.90;;;;;;4954498;28;20506;-83
2022/07/06 11:21:51;;;;;;;3.13;0.55;;;33.80;99.90;;;;;;4954271;28;20043;-83
2022/07/06 11:24:20;;;;;;;3.70;0.47;;;33.10;99.90;;;;;;4935193;29;20040;-84
2022/07/06 11:26:48;;;;;;;1.05;0.52;;;32.40;99.90;;;;;;4938915;29;20522;-82
2022/07/06 11:29:17;;;;;;;0.70;0.40;;;31.90;99.90;;;;;;4939746;29;20731;-85
2022/07/06 11:31:44;;;;;;;1.63;0.70;;;31.30;99.90;;;;;;4945706;28;20026;-83
2022/07/06 11:34:11;;;;;;;0.98;0.50;;;31.30;99.90;;;;;;4963311;28;20059;-85
2022/07/06 11:36:38;;;;;;;3.33;0.70;;;32.00;99.90;;;;;;4964330;28;20023;-84
2022/07/06 11:39:07;;;;;;;2.33;0.40;;;32.40;99.90;;;;;;4956990;29;20027;-85
2022/07/06 11:41:33;;;;;;;;;;;32.50;99.90;;;;;;4958641;29;20030;-82
2022/07/06 11:43:59;;;;;;;2.03;0.68;;;32.50;99.90;;;;;;4948947;28;20286;-85
2022/07/06 11:46:30;;;;;;;0.73;0.40;;;31.80;99.90;;;;;;4940149;29;20024;-83
2022/07/06 11:49:07;;;;;;;2.25;0.95;;;32.50;99.90;;;;;;4957176;29;20038;-84
2022/07/06 11:51:35;;;;;;;2.80;0.52;;;32.90;99.90;;;;;;4956045;29;20062;-83
2022/07/06 11:54:07;;;;;;;1.52;0.40;;;32.90;99.90;;;;;;4957730;29;20474;-84
2022/07/06 11:56:34;;;;;;;1.90;0.50;;;32.30;99.90;;;;;;4955807;29;20036;-83
2022/07/06 11:59:00;;;;;;;1.00;0.38;;;31.90;99.90;;;;;;4955779;29;20448;-84
2022/07/06 12:01:33;;;;;;;1.27;0.40;;;31.60;99.90;;;;;;4957224;28;20024;-84
2022/07/06 12:04:01;;;;;;;2.17;0.50;;;30.50;99.90;;;;;;4955476;28;20081;-84
2022/07/06 12:06:28;;;;;;;2.00;0.50;;;30.40;99.90;;;;;;4956767;28;20020;-84
2022/07/06 12:08:56;;;;;;;4.57;0.55;;;30.50;99.90;;;;;;4955501;28;20035;-78
2022/07/06 12:11:26;;;;;;;1.92;0.50;;;30.40;99.90;;;;;;4956750;28;20031;-78
2022/07/06 12:13:55;;;;;;;0.77;0.40;;;29.50;99.90;;;;;;4956827;28;20054;-78
2022/07/06 12:16:23;;;;;;;1.63;0.45;;;29.40;99.90;;;;;;4956679;28;20019;-78
2022/07/06 12:18:50;;;;;;;1.42;0.43;;;30.80;99.90;;;;;;4956783;28;20030;-78
2022/07/06 12:21:21;;;;;;;0.57;0.30;;;31.40;99.90;;;;;;4938911;28;20035;-79
2022/07/06 12:23:49;;;;;;;1.45;0.55;;;32.20;99.90;;;;;;4939009;28;20043;-78
2022/07/06 12:26:16;;;;;;;1.67;0.65;;;31.30;99.90;;;;;;4956121;29;20027;-78
2022/07/06 12:28:42;;;;;;;1.42;0.80;;;31.60;99.90;;;;;;4956995;29;20119;-82
2022/07/06 12:31:09;;;;;;;1.88;0.60;;;30.30;99.90;;;;;;4955048;28;20034;-81
2022/07/06 12:33:35;;;;;;;2.15;0.80;;;30.10;99.90;;;;;;4956483;28;20463;-80
2022/07/06 12:36:11;;;;;;;2.15;0.52;;;29.20;99.90;;;;;;4956165;28;20073;-80
2022/07/06 12:38:47;;;;;;;1.95;0.50;;;29.20;99.90;;;;;;4956204;28;20027;-79
2022/07/06 12:41:29;;;;;;;1.70;0.60;;;29.40;99.90;;;;;;4955927;28;20487;-79
2022/07/06 12:44:06;;;;;;;1.48;0.60;;;29.40;99.90;;;;;;4956320;28;20059;-79
2022/07/06 12:46:40;;;;;;;2.28;0.70;;;29.30;99.90;;;;;;4956417;28;21249;-80
2022/07/06 12:49:18;;;;;;;1.67;0.50;;;28.80;99.90;;;;;;4945509;29;20038;-79
2022/07/06 12:52:07;;;;;;;0.93;0.40;;;28.10;99.90;;;;;;4936324;29;20468;-80
2022/07/06 12:54:44;;;;;;;;;;;27.30;99.90;;;;;;4936832;29;20110;-79
2022/07/06 12:57:19;;;;;;;2.63;0.90;;;27.60;99.90;;;;;;4936303;28;19907;-80